Starview, Pennsylvania
Current Conditions -  °F | °C
As of 3:56 PM on Saturday 25 Oct 2014 (Local Time) from KMDT Reporting Station
Few Clouds Few Clouds  
Wind Chill: 69°   Ceiling: Unl
Heat Index: 69°   Visibility: 10mi
Dew Point: 45°   Wind: 10mph
Humidity: 42%   Direction: 220°SW
Pressure: 29.72"   Gusts: NA
Location:  40.0548°N, 76.6874°W
Report Text: KMDT 251956Z 22009KT 10SM FEW070 21/07 A2972 RMK AO2 SLP064 T02060072
Loading
Personal Weather Stations






























Interactive Weather Map
Tropical Storm Tracking
New forecast layout! Learn more

10-Day Weather Forecast

Advertisements
Track Severe Weather on mobile